Time;durP1;ratioP1;P1;durP2;ratioP2;P2;SDS_P1;SDS_P2;PMS_P1;PMS_P2;Temp;Humidity;BMP_temperature;BMP_pressure;BME280_temperature;BME280_humidity;BME280_pressure;Samples;Min_cycle;Max_cycle;Signal;HPM_P1;HPM_P2
2023/10/31 00:01:23;;;;;;;3.15;0.70;;;11.30;99.90;;;;;;4215071;28;20425;-79
2023/10/31 00:03:23;;;;;;;4.88;0.80;;;11.30;99.90;;;;;;4215562;28;20048;-79
2023/10/31 00:05:24;;;;;;;4.70;1.10;;;11.20;99.90;;;;;;4197399;28;20052;-81
2023/10/31 00:07:25;;;;;;;9.20;1.20;;;11.20;99.90;;;;;;4215739;28;20492;-81
2023/10/31 00:09:26;;;;;;;5.20;0.80;;;11.20;99.90;;;;;;4215531;28;20036;-81
2023/10/31 00:11:26;;;;;;;3.17;0.60;;;11.20;99.90;;;;;;4215495;28;20032;-81
2023/10/31 00:13:27;;;;;;;7.88;0.90;;;11.20;99.90;;;;;;4215538;28;20109;-81
2023/10/31 00:15:30;;;;;;;3.97;0.82;;;11.20;99.90;;;;;;4217923;28;20032;-81
2023/10/31 00:17:31;;;;;;;5.85;1.10;;;11.20;99.90;;;;;;4197488;28;20051;-80
2023/10/31 00:19:32;;;;;;;2.80;0.77;;;11.20;99.90;;;;;;4215441;28;20047;-79
2023/10/31 00:21:33;;;;;;;3.90;0.80;;;11.20;99.90;;;;;;4215377;28;20047;-81
2023/10/31 00:23:42;;;;;;;5.20;1.20;;;11.20;99.90;;;;;;4215673;28;20048;-79
2023/10/31 00:25:42;;;;;;;3.58;0.75;;;11.10;99.90;;;;;;4197988;28;20082;-79
2023/10/31 00:27:43;;;;;;;4.68;0.80;;;11.20;99.90;;;;;;4214876;28;20048;-79
2023/10/31 00:29:44;;;;;;;3.45;0.70;;;11.10;99.90;;;;;;4215288;28;20040;-79
2023/10/31 00:31:44;;;;;;;3.88;1.15;;;11.10;99.90;;;;;;4217927;28;20039;-79
2023/10/31 00:33:45;;;;;;;4.50;0.82;;;11.10;99.90;;;;;;4196854;28;20125;-79
2023/10/31 00:35:46;;;;;;;2.47;0.60;;;11.10;99.90;;;;;;4215221;28;20479;-80
2023/10/31 00:37:47;;;;;;;5.85;1.20;;;11.10;99.90;;;;;;4205031;28;20059;-80
2023/10/31 00:39:48;;;;;;;7.53;1.20;;;11.10;99.90;;;;;;4215219;28;20109;-80
2023/10/31 00:41:48;;;;;;;6.93;1.02;;;11.10;99.90;;;;;;4214437;28;20127;-80
2023/10/31 00:43:49;;;;;;;5.00;0.73;;;11.00;99.90;;;;;;4180296;28;20580;-80
2023/10/31 00:45:50;;;;;;;7.38;0.90;;;11.10;99.90;;;;;;4214993;28;20436;-80
2023/10/31 00:47:51;;;;;;;3.13;1.05;;;11.10;99.90;;;;;;4215195;28;20051;-80
2023/10/31 00:49:53;;;;;;;5.82;0.70;;;11.00;99.90;;;;;;4196794;28;20123;-80
2023/10/31 00:51:53;;;;;;;4.47;0.70;;;11.00;99.90;;;;;;4215011;28;20051;-80
2023/10/31 00:53:54;;;;;;;2.35;0.63;;;11.00;99.90;;;;;;4214385;28;20040;-80
2023/10/31 00:55:55;;;;;;;1.13;0.50;;;10.70;99.90;;;;;;4214898;28;20384;-80
2023/10/31 00:57:55;;;;;;;2.55;0.70;;;11.00;99.90;;;;;;4214846;28;20047;-80
2023/10/31 00:59:56;;;;;;;2.63;1.00;;;11.00;99.90;;;;;;4214588;28;20063;-80
2023/10/31 01:01:57;;;;;;;5.18;0.55;;;11.00;99.90;;;;;;4214388;28;20076;-79
2023/10/31 01:03:58;;;;;;;2.38;0.80;;;11.00;99.90;;;;;;4196183;28;20421;-79
2023/10/31 01:05:58;;;;;;;3.55;0.60;;;11.00;99.90;;;;;;4196537;28;20119;-79
2023/10/31 01:07:59;;;;;;;4.13;0.90;;;11.00;99.90;;;;;;4214682;28;20476;-79
2023/10/31 01:10:00;;;;;;;2.83;1.17;;;12.00;99.90;;;;;;4214316;28;20059;-79
2023/10/31 01:12:01;;;;;;;2.47;0.90;;;11.00;99.90;;;;;;4215787;28;20087;-79
2023/10/31 01:14:03;;;;;;;2.20;0.60;;;11.00;99.90;;;;;;4214376;28;20122;-79
2023/10/31 01:16:04;;;;;;;0.88;0.45;;;11.00;99.90;;;;;;4214251;28;20134;-79
2023/10/31 01:18:05;;;;;;;3.88;0.60;;;11.00;99.90;;;;;;4223176;28;20050;-80
2023/10/31 01:20:07;;;;;;;1.67;0.40;;;10.90;99.90;;;;;;4226635;28;20035;-79
2023/10/31 01:22:07;;;;;;;4.10;0.68;;;11.00;99.90;;;;;;4231252;28;20042;-79
2023/10/31 01:24:09;;;;;;;3.33;0.70;;;10.90;99.90;;;;;;4212684;28;20466;-79
2023/10/31 01:26:09;;;;;;;1.13;0.50;;;10.90;99.90;;;;;;4196418;28;20082;-79
2023/10/31 01:28:10;;;;;;;3.45;0.40;;;10.90;99.90;;;;;;4231131;28;20499;-79
2023/10/31 01:30:11;;;;;;;3.80;0.80;;;10.90;99.90;;;;;;4212559;28;20055;-79
2023/10/31 01:32:12;;;;;;;5.35;0.90;;;10.90;99.90;;;;;;4231059;28;20048;-79
2023/10/31 01:34:13;;;;;;;5.15;0.90;;;10.80;99.90;;;;;;4212865;28;20496;-79
2023/10/31 01:36:14;;;;;;;2.42;0.75;;;10.80;99.90;;;;;;4211155;28;20508;-79
2023/10/31 01:38:15;;;;;;;2.25;0.77;;;10.80;99.90;;;;;;4229417;28;20050;-79
2023/10/31 01:40:15;;;;;;;5.97;0.93;;;10.80;99.90;;;;;;4230541;28;20483;-79
2023/10/31 01:42:17;;;;;;;2.35;0.60;;;10.80;99.90;;;;;;4231273;28;20426;-79
2023/10/31 01:44:18;;;;;;;4.75;0.82;;;10.70;99.90;;;;;;4231636;28;20042;-79
2023/10/31 01:46:18;;;;;;;2.67;0.80;;;10.70;99.90;;;;;;4231782;28;20122;-78
2023/10/31 01:48:19;;;;;;;2.55;0.77;;;10.60;99.90;;;;;;4231887;28;20055;-79
2023/10/31 01:50:20;;;;;;;3.17;0.60;;;10.70;99.90;;;;;;4213576;28;20048;-78
2023/10/31 01:52:21;;;;;;;5.60;0.70;;;10.70;99.90;;;;;;4231610;28;20050;-79
2023/10/31 01:54:22;;;;;;;2.90;0.65;;;10.70;99.90;;;;;;4228529;28;20491;-79
2023/10/31 01:56:24;;;;;;;3.67;0.80;;;10.70;99.90;;;;;;4216444;28;20047;-79
2023/10/31 01:58:30;;;;;;;3.28;0.50;;;10.70;99.90;;;;;;4230801;28;20043;-79
2023/10/31 02:00:31;;;;;;;3.35;0.82;;;10.70;99.90;;;;;;4212477;28;20071;-79
2023/10/31 02:02:34;;;;;;;4.95;0.70;;;10.70;99.90;;;;;;4214387;28;20055;-79
2023/10/31 02:04:35;;;;;;;1.88;0.50;;;10.70;99.90;;;;;;4213865;28;20048;-80
2023/10/31 02:06:36;;;;;;;5.47;0.75;;;10.80;99.90;;;;;;4213964;28;20377;-80
2023/10/31 02:08:37;;;;;;;4.10;0.70;;;10.70;99.90;;;;;;4214198;28;20392;-80
2023/10/31 02:10:38;;;;;;;3.25;0.93;;;10.70;99.90;;;;;;4211667;28;20101;-81
2023/10/31 02:12:38;;;;;;;4.22;0.73;;;10.60;99.90;;;;;;4202693;28;20070;-80
2023/10/31 02:14:39;;;;;;;4.10;1.02;;;10.60;99.90;;;;;;4214078;28;20040;-80
2023/10/31 02:16:40;;;;;;;5.57;0.60;;;10.60;99.90;;;;;;4212620;28;20048;-80
2023/10/31 02:18:41;;;;;;;1.13;0.55;;;10.50;99.90;;;;;;4213396;28;20079;-81
2023/10/31 02:20:42;;;;;;;2.85;0.60;;;10.60;99.90;;;;;;4213625;28;20535;-81
2023/10/31 02:22:43;;;;;;;2.42;0.40;;;10.50;99.90;;;;;;4217075;28;20058;-81
2023/10/31 02:24:43;;;;;;;5.10;0.70;;;10.50;99.90;;;;;;4215865;28;20520;-81
2023/10/31 02:26:44;;;;;;;4.80;0.90;;;10.50;99.90;;;;;;4217003;28;20048;-81
2023/10/31 02:28:45;;;;;;;5.22;1.02;;;10.50;99.90;;;;;;4213381;28;20515;-81
2023/10/31 02:30:46;;;;;;;1.67;0.50;;;10.50;99.90;;;;;;4200930;28;20044;-81
2023/10/31 02:32:47;;;;;;;3.83;0.77;;;10.50;99.90;;;;;;4200465;28;20481;-81
2023/10/31 02:34:48;;;;;;;3.88;0.65;;;10.50;99.90;;;;;;4200051;28;20047;-81
2023/10/31 02:36:49;;;;;;;4.57;0.80;;;10.50;99.90;;;;;;4200127;28;20044;-81
2023/10/31 02:38:49;;;;;;;5.25;1.00;;;10.60;99.90;;;;;;4200287;28;20507;-81
2023/10/31 02:40:50;;;;;;;3.95;0.73;;;10.90;99.90;;;;;;4200051;28;20051;-81
2023/10/31 02:42:51;;;;;;;4.53;0.90;;;10.50;99.90;;;;;;4198856;28;20520;-81
2023/10/31 02:44:52;;;;;;;3.05;0.57;;;10.50;99.90;;;;;;4201910;28;20043;-81
2023/10/31 02:46:52;;;;;;;10.55;0.80;;;10.50;99.90;;;;;;4200748;28;20488;-81
2023/10/31 02:48:53;;;;;;;7.20;0.90;;;10.40;99.90;;;;;;4200262;28;20123;-80
2023/10/31 02:50:54;;;;;;;4.35;0.80;;;10.40;99.90;;;;;;4200109;28;20481;-81
2023/10/31 02:52:55;;;;;;;5.38;0.70;;;10.40;99.90;;;;;;4200104;28;20040;-81
2023/10/31 02:54:55;;;;;;;7.53;0.90;;;10.30;99.90;;;;;;4199946;28;20102;-81
2023/10/31 02:56:58;;;;;;;3.55;0.63;;;10.40;99.90;;;;;;4199817;28;20041;-81
2023/10/31 02:58:58;;;;;;;6.20;1.00;;;10.40;99.90;;;;;;4199779;28;20064;-81
2023/10/31 03:00:59;;;;;;;7.13;1.10;;;10.30;99.90;;;;;;4204202;28;20048;-81
2023/10/31 03:03:00;;;;;;;3.47;0.90;;;10.40;99.90;;;;;;4201586;28;20135;-81
2023/10/31 03:05:01;;;;;;;6.20;1.00;;;10.40;99.90;;;;;;4216027;28;20499;-81
2023/10/31 03:07:02;;;;;;;2.63;1.10;;;10.80;99.90;;;;;;4216632;28;20544;-81
2023/10/31 03:09:03;;;;;;;3.53;0.80;;;10.30;99.90;;;;;;4215953;28;20051;-81
2023/10/31 03:11:04;;;;;;;5.22;1.20;;;10.30;99.90;;;;;;4216612;28;20120;-81
2023/10/31 03:13:05;;;;;;;4.10;1.30;;;10.30;99.90;;;;;;4216304;28;20044;-81
2023/10/31 03:15:06;;;;;;;2.83;1.02;;;10.30;99.90;;;;;;4216530;28;20369;-81
2023/10/31 03:17:07;;;;;;;4.88;1.50;;;10.30;99.90;;;;;;4216296;28;20043;-81
2023/10/31 03:19:08;;;;;;;4.20;1.10;;;10.30;99.90;;;;;;4216471;28;20458;-81
2023/10/31 03:21:10;;;;;;;3.97;1.13;;;10.30;99.90;;;;;;4219177;28;20392;-81
2023/10/31 03:23:10;;;;;;;4.65;0.90;;;10.30;99.90;;;;;;4216181;28;20040;-81
2023/10/31 03:25:11;;;;;;;8.35;1.15;;;10.30;99.90;;;;;;4216375;28;20365;-81
2023/10/31 03:27:12;;;;;;;3.35;1.02;;;10.30;99.90;;;;;;4216266;28;20040;-81
2023/10/31 03:29:12;;;;;;;3.17;1.00;;;10.30;99.90;;;;;;4216366;28;20134;-81
2023/10/31 03:31:14;;;;;;;4.90;1.30;;;10.30;99.90;;;;;;4216183;28;20043;-81
2023/10/31 03:33:18;;;;;;;3.58;1.15;;;10.20;99.90;;;;;;4215979;28;20044;-81
2023/10/31 03:35:19;;;;;;;6.78;1.48;;;10.20;99.90;;;;;;4215821;28;20044;-81
2023/10/31 03:37:19;;;;;;;6.97;1.35;;;10.20;99.90;;;;;;4219202;28;20111;-81
2023/10/31 03:39:20;;;;;;;4.40;1.50;;;10.10;99.90;;;;;;4197974;28;20079;-81
2023/10/31 03:41:21;;;;;;;4.65;1.38;;;10.20;99.90;;;;;;4216200;28;20370;-81
2023/10/31 03:43:22;;;;;;;4.32;1.90;;;10.50;99.90;;;;;;4216136;28;20079;-81
2023/10/31 03:45:23;;;;;;;8.00;2.25;;;10.20;99.90;;;;;;4215698;28;20048;-81
2023/10/31 03:47:23;;;;;;;2.67;1.30;;;10.20;99.90;;;;;;4215854;28;20597;-81
2023/10/31 03:49:24;;;;;;;6.30;1.65;;;10.20;99.90;;;;;;4215316;28;20496;-81
2023/10/31 03:51:25;;;;;;;2.83;1.40;;;10.20;99.90;;;;;;4181470;28;20492;-81
2023/10/31 03:53:25;;;;;;;5.88;2.03;;;10.20;99.90;;;;;;4215898;28;20074;-81
2023/10/31 03:55:26;;;;;;;3.67;1.65;;;10.20;99.90;;;;;;4225141;28;20048;-80
2023/10/31 03:57:27;;;;;;;4.70;1.90;;;10.20;99.90;;;;;;4232585;28;20050;-81
2023/10/31 03:59:28;;;;;;;6.88;1.90;;;10.20;99.90;;;;;;4232455;28;20040;-81
2023/10/31 04:01:28;;;;;;;7.15;2.00;;;10.20;99.90;;;;;;4232454;28;20468;-80
2023/10/31 04:03:29;;;;;;;4.25;1.83;;;10.20;99.90;;;;;;4232724;28;20412;-80
2023/10/31 04:05:30;;;;;;;5.90;1.83;;;10.20;99.90;;;;;;4231998;28;20039;-81
2023/10/31 04:07:30;;;;;;;4.18;1.33;;;10.20;99.90;;;;;;4232395;28;20118;-81
2023/10/31 04:09:31;;;;;;;3.28;1.77;;;10.30;99.90;;;;;;4232310;28;20047;-81
2023/10/31 04:11:32;;;;;;;3.58;1.55;;;10.30;99.90;;;;;;4214339;28;20502;-81
2023/10/31 04:13:33;;;;;;;5.53;1.83;;;10.30;99.90;;;;;;4223341;28;20036;-81
2023/10/31 04:15:34;;;;;;;2.33;1.50;;;10.30;99.90;;;;;;4215556;28;20127;-81
2023/10/31 04:17:35;;;;;;;5.75;2.05;;;10.30;99.90;;;;;;4214967;28;20048;-81
2023/10/31 04:19:39;;;;;;;7.15;1.70;;;10.30;99.90;;;;;;4197481;28;20548;-80
2023/10/31 04:21:40;;;;;;;4.18;1.67;;;10.30;99.90;;;;;;4215480;28;20071;-80
2023/10/31 04:23:41;;;;;;;5.20;1.50;;;10.30;99.90;;;;;;4215452;28;20051;-81
2023/10/31 04:25:42;;;;;;;8.10;1.55;;;10.30;99.90;;;;;;4214963;28;20036;-81
2023/10/31 04:27:43;;;;;;;4.05;1.75;;;10.30;99.90;;;;;;4215396;28;20504;-81
2023/10/31 04:29:45;;;;;;;1.90;1.23;;;10.30;99.90;;;;;;4218338;28;20082;-81
2023/10/31 04:31:45;;;;;;;3.15;1.77;;;10.30;99.90;;;;;;4215140;28;20050;-81
2023/10/31 04:33:46;;;;;;;9.95;1.70;;;10.30;99.90;;;;;;4215292;28;20492;-81
2023/10/31 04:35:47;;;;;;;5.88;1.38;;;10.30;99.90;;;;;;4197043;28;20044;-81
2023/10/31 04:37:48;;;;;;;4.32;1.23;;;10.60;99.90;;;;;;4215256;28;20063;-80
2023/10/31 04:39:48;;;;;;;4.63;2.03;;;10.30;99.90;;;;;;4196878;28;20052;-80
2023/10/31 04:41:49;;;;;;;11.75;1.90;;;10.30;99.90;;;;;;4197002;28;20566;-80
2023/10/31 04:43:50;;;;;;;3.97;1.15;;;10.20;99.90;;;;;;4214592;28;20403;-80
2023/10/31 04:45:51;;;;;;;1.52;0.90;;;10.30;99.90;;;;;;4218095;28;20119;-80
2023/10/31 04:47:51;;;;;;;4.85;1.08;;;10.30;99.90;;;;;;4214614;28;20430;-80
2023/10/31 04:49:52;;;;;;;6.22;1.55;;;10.30;99.90;;;;;;4197023;28;20554;-80
2023/10/31 04:51:53;;;;;;;6.20;1.10;;;10.30;99.90;;;;;;4214614;28;20051;-79
2023/10/31 04:53:54;;;;;;;5.78;1.67;;;10.20;99.90;;;;;;4196724;28;20503;-79
2023/10/31 04:55:54;;;;;;;4.25;1.38;;;10.20;99.90;;;;;;4196849;28;20489;-80
2023/10/31 04:57:55;;;;;;;3.40;0.88;;;10.20;99.90;;;;;;4214695;28;20149;-80
2023/10/31 04:59:57;;;;;;;3.83;0.73;;;10.10;99.90;;;;;;4214677;28;20500;-79
2023/10/31 05:01:58;;;;;;;7.20;1.15;;;10.70;99.90;;;;;;4199636;28;20060;-80
2023/10/31 05:03:59;;;;;;;7.03;1.10;;;10.20;99.90;;;;;;4214328;28;20051;-80
2023/10/31 05:06:00;;;;;;;5.22;1.55;;;10.20;99.90;;;;;;4224935;28;20040;-81
2023/10/31 05:08:01;;;;;;;4.53;1.10;;;10.20;99.90;;;;;;4213241;28;20055;-79
2023/10/31 05:10:02;;;;;;;5.90;1.15;;;10.20;99.90;;;;;;4231514;28;20573;-80
2023/10/31 05:12:03;;;;;;;8.27;1.42;;;10.20;99.90;;;;;;4231575;28;20118;-79
2023/10/31 05:14:04;;;;;;;4.97;1.30;;;10.20;99.90;;;;;;4231528;28;20092;-79
2023/10/31 05:16:05;;;;;;;4.32;1.02;;;10.20;99.90;;;;;;4212889;28;20044;-80
2023/10/31 05:18:06;;;;;;;3.75;1.38;;;10.20;99.90;;;;;;4210506;28;20123;-80
2023/10/31 05:20:08;;;;;;;3.13;1.42;;;10.20;99.90;;;;;;4214374;28;20443;-80
2023/10/31 05:22:09;;;;;;;2.10;0.77;;;10.20;99.90;;;;;;4214608;28;20768;-80
2023/10/31 05:24:11;;;;;;;4.35;1.35;;;10.30;99.90;;;;;;4214339;28;20044;-80
2023/10/31 05:26:12;;;;;;;1.40;0.75;;;10.20;99.90;;;;;;4214255;28;20093;-80
2023/10/31 05:28:12;;;;;;;5.20;0.90;;;11.00;99.90;;;;;;4214764;28;20492;-80
2023/10/31 05:30:14;;;;;;;3.25;0.80;;;10.20;99.90;;;;;;4214500;28;20104;-80
2023/10/31 05:32:14;;;;;;;2.47;0.88;;;10.20;99.90;;;;;;4214247;28;20119;-80
2023/10/31 05:34:15;;;;;;;2.75;0.70;;;10.20;99.90;;;;;;4214424;28;20063;-80
2023/10/31 05:36:23;;;;;;;2.42;0.98;;;10.20;99.90;;;;;;4217262;28;20040;-80
2023/10/31 05:38:24;;;;;;;3.60;0.93;;;10.20;99.90;;;;;;4214108;28;20043;-80
2023/10/31 05:40:27;;;;;;;0.80;0.60;;;10.20;99.90;;;;;;4214337;28;20594;-80
2023/10/31 05:42:28;;;;;;;2.88;0.60;;;10.30;99.90;;;;;;4214236;28;20118;-80
2023/10/31 05:44:28;;;;;;;2.78;0.50;;;10.20;99.90;;;;;;4213694;28;20063;-80
2023/10/31 05:46:29;;;;;;;2.08;0.50;;;10.20;99.90;;;;;;4215042;28;20183;-80
2023/10/31 05:48:31;;;;;;;3.85;0.45;;;10.20;99.90;;;;;;4231253;28;20047;-80
2023/10/31 05:50:32;;;;;;;2.05;0.20;;;10.20;99.90;;;;;;4231148;28;20576;-80
2023/10/31 05:52:33;;;;;;;1.02;0.30;;;10.20;99.90;;;;;;4230900;28;20051;-79
2023/10/31 05:54:34;;;;;;;1.42;0.30;;;10.30;99.90;;;;;;4230811;28;20035;-79
2023/10/31 05:56:34;;;;;;;1.33;0.60;;;10.20;99.90;;;;;;4233313;28;20471;-79
2023/10/31 05:58:37;;;;;;;1.30;0.45;;;10.20;99.90;;;;;;4234187;28;20044;-79
2023/10/31 06:00:37;;;;;;;0.90;0.30;;;10.10;99.90;;;;;;4228260;28;20047;-80
2023/10/31 06:02:38;;;;;;;2.17;0.50;;;10.20;99.90;;;;;;4216677;28;20058;-79
2023/10/31 06:04:39;;;;;;;2.70;0.60;;;10.20;99.90;;;;;;4234579;28;20040;-79
2023/10/31 06:06:40;;;;;;;1.35;0.55;;;10.20;99.90;;;;;;4234659;28;20152;-79
2023/10/31 06:08:41;;;;;;;2.95;0.75;;;10.20;99.90;;;;;;4234270;28;20052;-80
2023/10/31 06:10:42;;;;;;;1.17;0.60;;;10.10;99.90;;;;;;4234202;28;20134;-80
2023/10/31 06:12:43;;;;;;;1.60;0.35;;;10.10;99.90;;;;;;4234457;28;20484;-79
2023/10/31 06:14:44;;;;;;;3.40;0.63;;;10.10;99.90;;;;;;4234238;28;20089;-79
2023/10/31 06:16:44;;;;;;;1.50;0.60;;;10.10;99.90;;;;;;4231923;28;20392;-80
2023/10/31 06:18:45;;;;;;;2.75;0.70;;;10.10;99.90;;;;;;4218290;28;20086;-79
2023/10/31 06:20:46;;;;;;;2.72;0.50;;;10.10;99.90;;;;;;4217221;28;20067;-79
2023/10/31 06:22:47;;;;;;;0.68;0.60;;;10.10;99.90;;;;;;4217176;28;20465;-79
2023/10/31 06:24:48;;;;;;;1.77;0.65;;;11.10;99.90;;;;;;4217201;28;20036;-79
2023/10/31 06:26:48;;;;;;;2.92;0.70;;;10.20;99.90;;;;;;4217076;28;20050;-79
2023/10/31 06:28:49;;;;;;;2.75;0.77;;;10.20;99.90;;;;;;4217002;28;20488;-79
2023/10/31 06:30:50;;;;;;;1.17;0.88;;;10.10;99.90;;;;;;4216331;28;20484;-79
2023/10/31 06:32:53;;;;;;;1.65;0.85;;;10.20;99.90;;;;;;4225636;28;20032;-80
2023/10/31 06:34:53;;;;;;;2.47;1.35;;;10.20;99.90;;;;;;4216885;28;20040;-80
2023/10/31 06:36:54;;;;;;;1.40;0.90;;;10.20;99.90;;;;;;4216905;28;20044;-80
2023/10/31 06:38:56;;;;;;;4.32;1.35;;;10.20;99.90;;;;;;4198874;28;20055;-80
2023/10/31 06:40:57;;;;;;;2.65;0.80;;;9.00;99.90;;;;;;4216999;28;20484;-81
2023/10/31 06:42:58;;;;;;;4.55;1.00;;;10.20;99.90;;;;;;4198952;28;20084;-81
2023/10/31 06:44:58;;;;;;;5.75;0.95;;;10.10;99.90;;;;;;4216783;28;20040;-80
2023/10/31 06:46:59;;;;;;;3.17;0.85;;;10.20;99.90;;;;;;4216874;28;20044;-80
2023/10/31 06:49:00;;;;;;;1.70;0.93;;;10.20;99.90;;;;;;4217148;28;20424;-81
2023/10/31 06:51:00;;;;;;;1.58;0.90;;;10.20;99.90;;;;;;4216763;28;20041;-80
2023/10/31 06:53:01;;;;;;;2.15;1.02;;;10.20;99.90;;;;;;4216070;28;20047;-80
2023/10/31 06:55:02;;;;;;;3.88;0.95;;;10.20;99.90;;;;;;4229818;28;20531;-81
2023/10/31 06:57:04;;;;;;;1.95;0.73;;;10.20;99.90;;;;;;4233622;28;20127;-80
2023/10/31 06:59:04;;;;;;;2.38;1.13;;;10.30;99.90;;;;;;4215153;28;20412;-81
2023/10/31 07:01:05;;;;;;;2.20;1.30;;;10.30;99.90;;;;;;4233243;28;20052;-80
2023/10/31 07:03:09;;;;;;;4.65;1.23;;;10.30;99.90;;;;;;4227345;28;20860;-81
2023/10/31 07:05:10;;;;;;;2.58;1.08;;;10.30;99.90;;;;;;4200974;28;20028;-81
2023/10/31 07:07:10;;;;;;;2.63;1.20;;;10.30;99.90;;;;;;4215375;28;20094;-81
2023/10/31 07:09:11;;;;;;;3.83;1.13;;;10.40;99.90;;;;;;4216331;28;20040;-80
2023/10/31 07:11:12;;;;;;;3.63;0.95;;;10.30;99.90;;;;;;4216485;28;20050;-81
2023/10/31 07:13:13;;;;;;;3.65;1.02;;;10.50;99.90;;;;;;4216600;28;20052;-81
2023/10/31 07:15:13;;;;;;;3.78;1.35;;;10.30;99.90;;;;;;4216557;28;20047;-80
2023/10/31 07:17:14;;;;;;;3.38;1.02;;;10.30;99.90;;;;;;4216426;28;20048;-81
2023/10/31 07:19:15;;;;;;;2.78;1.00;;;10.30;99.90;;;;;;4216085;28;20044;-80
2023/10/31 07:21:16;;;;;;;5.38;1.40;;;10.30;99.90;;;;;;4209642;28;20036;-79
2023/10/31 07:23:17;;;;;;;4.18;1.67;;;11.30;99.90;;;;;;4232777;28;20043;-79
2023/10/31 07:25:18;;;;;;;7.28;1.42;;;10.30;99.90;;;;;;4232957;28;20452;-79
2023/10/31 07:27:18;;;;;;;3.67;0.98;;;10.30;99.90;;;;;;4214471;28;20412;-79
2023/10/31 07:29:19;;;;;;;3.55;1.25;;;10.30;99.90;;;;;;4233159;28;20051;-79
2023/10/31 07:31:20;;;;;;;6.10;1.33;;;10.30;99.90;;;;;;4232996;28;20073;-79
2023/10/31 07:33:21;;;;;;;8.38;1.15;;;10.40;99.90;;;;;;4233166;28;20120;-79
2023/10/31 07:35:21;;;;;;;2.58;1.55;;;10.30;99.90;;;;;;4233037;28;20054;-79
2023/10/31 07:37:22;;;;;;;3.75;1.33;;;10.40;99.90;;;;;;4232888;28;20047;-79
2023/10/31 07:39:23;;;;;;;6.90;1.55;;;10.90;99.90;;;;;;4232985;28;20445;-79
2023/10/31 07:41:24;;;;;;;2.08;1.15;;;10.40;99.90;;;;;;4226896;28;20043;-78
2023/10/31 07:43:25;;;;;;;4.15;1.25;;;10.40;99.90;;;;;;4215979;28;20048;-79
2023/10/31 07:45:26;;;;;;;3.50;1.17;;;10.50;99.90;;;;;;4217132;28;20028;-79
2023/10/31 07:47:26;;;;;;;3.90;1.30;;;10.50;99.90;;;;;;4217828;28;20412;-79
2023/10/31 07:49:27;;;;;;;5.38;1.23;;;10.90;99.90;;;;;;4197844;28;20041;-79
2023/10/31 07:51:28;;;;;;;4.15;0.75;;;10.50;99.90;;;;;;4215872;28;20044;-80
2023/10/31 07:53:29;;;;;;;2.75;1.10;;;10.50;99.90;;;;;;4197730;28;20127;-80
2023/10/31 07:55:31;;;;;;;1.83;0.82;;;10.50;99.90;;;;;;4215314;28;20459;-80
2023/10/31 07:57:31;;;;;;;4.38;1.70;;;10.60;99.90;;;;;;4217157;28;20040;-80
2023/10/31 07:59:35;;;;;;;4.20;1.00;;;10.60;99.90;;;;;;4227899;28;20108;-81
2023/10/31 08:01:36;;;;;;;3.70;0.70;;;11.40;99.90;;;;;;4227703;28;20058;-80
2023/10/31 08:03:37;;;;;;;5.47;0.98;;;10.60;99.90;;;;;;4219440;28;20050;-81
2023/10/31 08:05:39;;;;;;;2.92;0.73;;;10.60;99.90;;;;;;4228348;28;20075;-81
2023/10/31 08:07:40;;;;;;;1.10;0.70;;;10.70;99.90;;;;;;4201583;28;20044;-81
2023/10/31 08:09:41;;;;;;;2.75;0.63;;;10.70;99.90;;;;;;4201511;28;20082;-81
2023/10/31 08:11:42;;;;;;;3.00;0.60;;;10.70;99.90;;;;;;4219236;28;20040;-81
2023/10/31 08:13:43;;;;;;;4.78;0.68;;;10.80;99.90;;;;;;4201250;28;20049;-81
2023/10/31 08:15:44;;;;;;;5.50;0.80;;;10.70;99.90;;;;;;4218888;28;20044;-81
2023/10/31 08:17:44;;;;;;;6.57;0.85;;;10.80;99.90;;;;;;4208937;28;20480;-81
2023/10/31 08:19:46;;;;;;;3.17;0.30;;;10.90;99.90;;;;;;4220130;28;20044;-81
2023/10/31 08:21:47;;;;;;;2.00;0.82;;;10.90;99.90;;;;;;4215735;28;20048;-81
2023/10/31 08:23:48;;;;;;;3.78;0.60;;;11.00;99.90;;;;;;4227945;28;20511;-81
2023/10/31 08:25:50;;;;;;;6.03;0.47;;;11.00;99.90;;;;;;4229049;28;20126;-81
2023/10/31 08:27:51;;;;;;;3.15;0.45;;;11.10;99.90;;;;;;4197464;28;20049;-81
2023/10/31 08:29:52;;;;;;;2.80;0.63;;;11.10;99.90;;;;;;4200939;28;20044;-81
2023/10/31 08:31:52;;;;;;;1.85;0.50;;;11.20;99.90;;;;;;4224317;28;20091;-82
2023/10/31 08:33:53;;;;;;;7.03;0.68;;;11.20;99.90;;;;;;4227470;28;20036;-82
2023/10/31 08:35:54;;;;;;;6.10;0.65;;;11.20;99.90;;;;;;4209884;28;20032;-81
2023/10/31 08:37:55;;;;;;;5.95;0.82;;;11.30;99.90;;;;;;4208954;28;20052;-82
2023/10/31 08:39:56;;;;;;;2.63;0.60;;;11.20;99.90;;;;;;4218555;28;20044;-82
2023/10/31 08:41:58;;;;;;;4.03;0.60;;;11.30;99.90;;;;;;4192477;28;20547;-82
2023/10/31 08:44:02;;;;;;;6.45;0.73;;;11.40;99.90;;;;;;4202222;28;20095;-82
2023/10/31 08:46:03;;;;;;;2.60;0.82;;;11.40;99.90;;;;;;4192012;28;20056;-82
2023/10/31 08:48:04;;;;;;;9.32;0.50;;;11.50;99.90;;;;;;4197215;28;20105;-82
2023/10/31 08:50:08;;;;;;;5.45;0.70;;;11.50;99.90;;;;;;4226595;28;20555;-82
2023/10/31 08:52:09;;;;;;;9.52;0.70;;;11.60;99.90;;;;;;4207473;28;20044;-82
2023/10/31 08:54:10;;;;;;;4.80;0.70;;;11.60;99.90;;;;;;4226832;28;20503;-83
2023/10/31 08:56:12;;;;;;;4.40;0.88;;;11.60;99.90;;;;;;4225666;28;20445;-82
2023/10/31 08:58:13;;;;;;;8.30;0.50;;;11.70;99.90;;;;;;4219526;28;20393;-81
2023/10/31 09:00:14;;;;;;;1.83;0.70;;;11.70;99.90;;;;;;4200245;28;20045;-81
2023/10/31 09:02:15;;;;;;;4.22;1.10;;;11.60;99.90;;;;;;4225432;28;20163;-85
2023/10/31 09:04:16;;;;;;;4.18;0.30;;;11.60;99.90;;;;;;4217273;28;20048;-83
2023/10/31 09:06:18;;;;;;;3.90;0.73;;;11.70;99.90;;;;;;4217224;28;20079;-84
2023/10/31 09:08:19;;;;;;;3.20;0.38;;;11.50;99.90;;;;;;4226979;28;20403;-82
2023/10/31 09:10:19;;;;;;;6.90;0.80;;;11.50;99.90;;;;;;4225707;28;20043;-82
2023/10/31 09:12:20;;;;;;;3.38;0.75;;;11.40;99.90;;;;;;4218792;28;20044;-85
2023/10/31 09:14:21;;;;;;;5.70;0.80;;;11.40;99.90;;;;;;4203447;28;20052;-82
2023/10/31 09:16:21;;;;;;;14.93;1.65;;;11.40;99.90;;;;;;4225675;28;20052;-82
2023/10/31 09:18:22;;;;;;;4.25;1.15;;;11.40;99.90;;;;;;4218213;28;20065;-82
2023/10/31 09:20:23;;;;;;;5.00;1.25;;;11.30;99.90;;;;;;4207776;28;20039;-81
2023/10/31 09:22:27;;;;;;;3.90;1.38;;;11.30;99.90;;;;;;4214072;28;20503;-82
2023/10/31 09:24:28;;;;;;;7.88;0.50;;;11.30;99.90;;;;;;4200228;28;20119;-82
2023/10/31 09:26:28;;;;;;;3.20;0.45;;;11.30;99.90;;;;;;4195568;28;20526;-82
2023/10/31 09:28:29;;;;;;;2.15;0.40;;;11.40;99.90;;;;;;4217786;28;20431;-82
2023/10/31 09:30:30;;;;;;;5.15;0.75;;;11.30;99.90;;;;;;4225707;28;20408;-82
2023/10/31 09:32:31;;;;;;;2.55;0.45;;;11.20;99.90;;;;;;4208095;28;20117;-82
2023/10/31 09:34:31;;;;;;;1.88;0.25;;;11.20;99.90;;;;;;4216945;28;20059;-81
2023/10/31 09:36:34;;;;;;;1.20;0.30;;;11.40;99.90;;;;;;4206654;28;20094;-81
2023/10/31 09:38:36;;;;;;;5.65;0.30;;;11.20;99.90;;;;;;4215916;28;20531;-81
2023/10/31 09:40:39;;;;;;;2.92;0.60;;;11.20;99.90;;;;;;4221959;28;20028;-81
2023/10/31 09:42:40;;;;;;;2.13;0.40;;;11.20;99.90;;;;;;4198020;28;20153;-82
2023/10/31 09:44:41;;;;;;;5.10;0.57;;;11.30;99.90;;;;;;4224178;28;20096;-82
2023/10/31 09:46:41;;;;;;;2.08;0.20;;;11.30;99.90;;;;;;4215556;28;20052;-82
2023/10/31 09:48:43;;;;;;;2.28;0.32;;;11.50;99.90;;;;;;4206583;28;20048;-82
2023/10/31 09:50:44;;;;;;;4.55;0.57;;;11.80;99.90;;;;;;4198062;28;20051;-82
2023/10/31 09:52:46;;;;;;;5.95;0.20;;;11.90;99.90;;;;;;4216979;28;20047;-82
2023/10/31 09:54:48;;;;;;;2.20;0.25;;;12.20;99.90;;;;;;4217325;28;20044;-82
2023/10/31 09:56:49;;;;;;;2.15;0.32;;;12.30;99.90;;;;;;4217595;28;20094;-82
2023/10/31 09:58:52;;;;;;;2.50;0.80;;;12.70;99.90;;;;;;4199502;28;20098;-82
2023/10/31 10:00:53;;;;;;;3.58;0.45;;;12.80;99.90;;;;;;4211329;28;20139;-82
2023/10/31 10:02:55;;;;;;;1.60;0.25;;;13.10;99.90;;;;;;4208303;28;20048;-82
2023/10/31 10:04:55;;;;;;;2.97;0.20;;;13.40;99.90;;;;;;4200543;28;20037;-82
2023/10/31 10:07:04;;;;;;;3.65;0.65;;;13.60;99.90;;;;;;4209365;28;20073;-81
2023/10/31 10:09:06;;;;;;;0.50;0.40;;;13.80;99.90;;;;;;4199966;28;20048;-82
2023/10/31 10:11:07;;;;;;;1.13;0.20;;;14.10;99.90;;;;;;4200428;28;20378;-82
2023/10/31 10:13:09;;;;;;;1.23;0.45;;;14.30;99.90;;;;;;4200968;28;20404;-81
2023/10/31 10:15:11;;;;;;;4.20;0.20;;;14.50;99.90;;;;;;4197393;28;20400;-81
2023/10/31 10:17:16;;;;;;;2.38;0.20;;;14.70;99.90;;;;;;4196230;28;20049;-81
2023/10/31 10:19:20;;;;;;;3.60;0.35;;;14.80;99.90;;;;;;4200214;28;20070;-81
2023/10/31 10:21:21;;;;;;;1.95;0.35;;;14.70;99.90;;;;;;4196896;28;20464;-81
2023/10/31 10:23:22;;;;;;;2.08;0.40;;;14.60;99.90;;;;;;4196812;28;20127;-81
2023/10/31 10:25:23;;;;;;;3.85;0.63;;;14.40;99.90;;;;;;4195798;28;20045;-81
2023/10/31 10:27:24;;;;;;;3.17;0.88;;;14.20;99.90;;;;;;4196147;28;20051;-81
2023/10/31 10:29:26;;;;;;;4.13;0.38;;;14.10;99.90;;;;;;4197988;28;20119;-81
2023/10/31 10:31:27;;;;;;;1.48;0.30;;;14.00;99.90;;;;;;4211984;28;20040;-81